createdAt,value
2017-02-24T00:00:57.736Z,83.1
2017-02-24T00:01:57.731Z,84.43
2017-02-24T00:02:57.717Z,85.19
2017-02-24T00:03:57.706Z,84.33
2017-02-24T00:04:57.696Z,84.91
2017-02-24T00:05:57.685Z,84.14
2017-02-24T00:06:57.689Z,83.19
2017-02-24T00:07:57.665Z,83.58
2017-02-24T00:08:57.658Z,82.71
2017-02-24T00:09:57.647Z,83.19
2017-02-24T00:10:57.645Z,82.81
2017-02-24T00:11:57.638Z,82.53
2017-02-24T00:12:57.619Z,82.71
2017-02-24T00:13:57.608Z,84.05
2017-02-24T00:14:57.599Z,83.58
2017-02-24T00:15:57.593Z,81.96
2017-02-24T00:16:57.578Z,82.53
2017-02-24T00:17:57.577Z,82.53
2017-02-24T00:18:57.560Z,82.71
2017-02-24T00:19:57.547Z,82.91
2017-02-24T00:20:57.539Z,83.58
2017-02-24T00:21:57.528Z,84.24
2017-02-24T00:22:57.518Z,85.72
2017-02-24T00:23:57.509Z,86.61
2017-02-24T00:24:57.499Z,86.9
2017-02-24T00:25:57.490Z,84.33
2017-02-24T00:26:57.481Z,83.15
2017-02-24T00:27:57.468Z,84.58
2017-02-24T00:28:57.463Z,84.58
2017-02-24T00:29:57.448Z,84.1
2017-02-24T00:30:57.444Z,84.1
2017-02-24T00:31:57.429Z,82.87
2017-02-24T00:32:57.418Z,84.01
2017-02-24T00:33:57.417Z,83.25
2017-02-24T00:34:57.399Z,82.96
2017-02-24T00:35:57.395Z,82.58
2017-02-24T00:36:57.381Z,83.15
2017-02-24T00:37:57.368Z,83.15
2017-02-24T00:38:57.358Z,83.44
2017-02-24T00:39:57.347Z,83.44
2017-02-24T00:40:57.338Z,83.82
2017-02-24T00:41:57.332Z,81.92
2017-02-24T00:42:57.319Z,82.2
2017-02-24T00:43:57.309Z,80.58
2017-02-24T00:44:57.303Z,81.35
2017-02-24T00:45:57.299Z,82.29
2017-02-24T00:46:57.286Z,82.01
2017-02-24T00:47:57.277Z,83.62
2017-02-24T00:48:57.259Z,83.91
2017-02-24T00:49:57.247Z,83.62
2017-02-24T00:50:57.237Z,84.2
2017-02-24T00:51:57.238Z,84.05
2017-02-24T00:52:57.217Z,83.76
2017-02-24T00:53:57.208Z,83.76
2017-02-24T00:54:56.813Z,84.67
2017-02-24T00:55:57.188Z,84.29
2017-02-24T00:56:57.179Z,83.44
2017-02-24T00:57:57.167Z,84.14
2017-02-24T00:58:57.159Z,83.48
2017-02-24T00:59:57.170Z,84.43
2017-02-24T01:00:57.137Z,84.72
2017-02-24T01:01:57.128Z,85.1
2017-02-24T01:02:57.124Z,84.91
2017-02-24T01:03:57.107Z,83.86
2017-02-24T01:04:57.099Z,84.72
2017-02-24T01:05:57.088Z,85.57
2017-02-24T01:06:57.078Z,85.76
2017-02-24T01:07:57.068Z,86.38
2017-02-24T01:08:57.062Z,86.43
2017-02-24T01:09:57.047Z,87.24
2017-02-24T01:10:57.038Z,86.95
2017-02-24T01:11:57.028Z,86.29
2017-02-24T01:12:57.049Z,87.14
2017-02-24T01:13:57.017Z,88.28
2017-02-24T01:14:56.997Z,89.14
2017-02-24T01:15:56.998Z,89.33
2017-02-24T01:16:56.980Z,90.09
2017-02-24T01:17:56.967Z,90.85
2017-02-24T01:18:56.957Z,91.89
2017-02-24T01:19:56.954Z,93.32
2017-02-24T01:20:56.938Z,93.41
2017-02-24T01:21:56.961Z,93.89
2017-02-24T01:22:56.918Z,93.89
2017-02-24T01:23:56.913Z,94.37
2017-02-24T01:24:56.898Z,94.46
2017-02-24T01:25:56.884Z,95.22
2017-02-24T01:26:56.891Z,94.84
2017-02-24T01:27:56.866Z,95.98
2017-02-24T01:28:56.856Z,95.51
2017-02-24T01:29:56.846Z,95.55
2017-02-24T01:30:56.835Z,94.98
2017-02-24T01:31:56.827Z,95.65
2017-02-24T01:32:56.830Z,95.65
2017-02-24T01:33:56.805Z,95.65
2017-02-24T01:34:56.798Z,96.22
2017-02-24T01:35:56.792Z,95.75
2017-02-24T01:36:56.387Z,96.22
2017-02-24T01:37:56.764Z,95.36
2017-02-24T01:38:56.749Z,95.46
2017-02-24T01:39:56.743Z,95.36
2017-02-24T01:40:56.730Z,96.03
2017-02-24T01:41:56.722Z,95.75
2017-02-24T01:42:56.712Z,96.5
2017-02-24T01:43:56.700Z,96.22
2017-02-24T01:44:56.693Z,96.5
2017-02-24T01:45:56.690Z,97.27
2017-02-24T01:46:56.672Z,96.93
2017-02-24T01:47:56.660Z,96.55
2017-02-24T01:48:56.650Z,97.45
2017-02-24T01:49:56.651Z,97.41
2017-02-24T01:50:56.640Z,97.6
2017-02-24T01:51:56.615Z,97.41
2017-02-24T01:52:56.611Z,97.97
2017-02-24T01:53:56.634Z,97.6
2017-02-24T01:54:56.197Z,97.5
2017-02-24T01:55:56.572Z,97.78
2017-02-24T01:56:56.563Z,97.78
2017-02-24T01:57:56.553Z,97.41
2017-02-24T01:58:56.791Z,97.41
2017-02-24T01:59:56.532Z,97.41
2017-02-24T02:00:56.522Z,97.6
2017-02-24T02:01:56.509Z,97.78
2017-02-24T02:02:56.499Z,97.69
2017-02-24T02:03:56.786Z,97.88
2017-02-24T02:04:56.478Z,97.6
2017-02-24T02:05:56.462Z,97.78
2017-02-24T02:06:56.459Z,97.78
2017-02-24T02:07:56.441Z,97.69
2017-02-24T02:08:56.684Z,97.41
2017-02-24T02:09:56.420Z,97.41
2017-02-24T02:10:56.410Z,97.41
2017-02-24T02:11:56.400Z,97.41
2017-02-24T02:12:56.394Z,97.6
2017-02-24T02:13:56.628Z,97.78
2017-02-24T02:14:56.378Z,97.41
2017-02-24T02:15:56.356Z,97.12
2017-02-24T02:16:56.354Z,97.5
2017-02-24T02:17:56.346Z,97.5
2017-02-24T02:18:56.626Z,97.69
2017-02-24T02:19:56.313Z,97.41
2017-02-24T02:20:56.315Z,97.41
2017-02-24T02:21:56.293Z,96.74
2017-02-24T02:22:56.284Z,96.83
2017-02-24T02:23:56.522Z,96.83
2017-02-24T02:24:56.256Z,97.12
2017-02-24T02:25:56.245Z,97.22
2017-02-24T02:26:56.234Z,96.64
2017-02-24T02:27:56.223Z,96.64
2017-02-24T02:28:56.561Z,96.74
2017-02-24T02:29:56.202Z,95.22
2017-02-24T02:30:56.189Z,95.03
2017-02-24T02:31:56.182Z,95.31
2017-02-24T02:32:56.175Z,94.93
2017-02-24T02:33:56.406Z,94.46
2017-02-24T02:34:56.151Z,93.51
2017-02-24T02:35:56.132Z,93.99
2017-02-24T02:36:56.123Z,94.37
2017-02-24T02:37:56.125Z,93.7
2017-02-24T02:38:56.103Z,94.18
2017-02-24T02:39:56.091Z,93.8
2017-02-24T02:40:56.079Z,93.84
2017-02-24T02:41:56.074Z,93.75
2017-02-24T02:42:56.059Z,93.6
2017-02-24T02:43:56.059Z,93.04
2017-02-24T02:44:56.036Z,93.23
2017-02-24T02:45:56.031Z,93.18
2017-02-24T02:46:56.014Z,92.85
2017-02-24T02:47:56.015Z,92.51
2017-02-24T02:48:55.997Z,92.04
2017-02-24T02:49:55.981Z,91.75
2017-02-24T02:50:55.982Z,92.32
2017-02-24T02:51:55.972Z,92.56
2017-02-24T02:52:55.949Z,92.51
2017-02-24T02:53:55.938Z,92.61
2017-02-24T02:54:55.932Z,91.14
2017-02-24T02:55:55.916Z,91.94
2017-02-24T02:56:55.904Z,92.28
2017-02-24T02:57:55.894Z,92.56
2017-02-24T02:58:55.895Z,92.04
2017-02-24T02:59:55.875Z,90.57
2017-02-24T03:00:55.861Z,91.56
2017-02-24T03:01:55.855Z,91.56
2017-02-24T03:02:55.846Z,91.14
2017-02-24T03:03:55.830Z,91.61
2017-02-24T03:04:55.824Z,92.04
2017-02-24T03:05:55.820Z,92.51
2017-02-24T03:06:55.797Z,92.32
2017-02-24T03:07:55.787Z,91.94
2017-02-24T03:08:55.781Z,91.47
2017-02-24T03:09:55.765Z,90.61
2017-02-24T03:10:55.766Z,91.47
2017-02-24T03:11:55.750Z,91.75
2017-02-24T03:12:55.733Z,91.94
2017-02-24T03:13:55.720Z,90.71
2017-02-24T03:14:55.713Z,89.95
2017-02-24T03:15:55.706Z,89.09
2017-02-24T03:16:55.691Z,89.09
2017-02-24T03:17:55.678Z,90.33
2017-02-24T03:18:55.668Z,89.28
2017-02-24T03:19:55.656Z,88.9
2017-02-24T03:20:55.646Z,89.47
2017-02-24T03:21:55.635Z,89.09
2017-02-24T03:22:55.624Z,89
2017-02-24T03:23:55.626Z,88.9
2017-02-24T03:24:55.606Z,88.9
2017-02-24T03:25:55.606Z,89.38
2017-02-24T03:26:55.594Z,90.23
2017-02-24T03:27:55.572Z,88.62
2017-02-24T03:28:55.584Z,88.81
2017-02-24T03:29:55.551Z,88.81
2017-02-24T03:30:55.539Z,88.05
2017-02-24T03:31:55.531Z,88.24
2017-02-24T03:32:55.530Z,88.34
2017-02-24T03:33:55.507Z,87.38
2017-02-24T03:34:55.504Z,87.29
2017-02-24T03:35:55.486Z,87.38
2017-02-24T03:36:55.482Z,88.43
2017-02-24T03:37:55.466Z,88.43
2017-02-24T03:38:55.452Z,88.43
2017-02-24T03:39:55.441Z,89
2017-02-24T03:40:55.435Z,88.9
2017-02-24T03:41:55.420Z,88.43
2017-02-24T03:42:55.408Z,88.05
2017-02-24T03:43:55.402Z,88.43
2017-02-24T03:44:55.386Z,87.38
2017-02-24T03:45:55.377Z,87.48
2017-02-24T03:46:55.367Z,87.38
2017-02-24T03:47:55.361Z,85.3
2017-02-24T03:48:55.347Z,85.77
2017-02-24T03:49:55.334Z,86.63
2017-02-24T03:50:55.330Z,86.43
2017-02-24T03:51:55.322Z,86.53
2017-02-24T03:52:55.327Z,86.43
2017-02-24T03:53:55.290Z,86.15
2017-02-24T03:54:55.294Z,85.96
2017-02-24T03:55:55.277Z,86.63
2017-02-24T03:56:55.261Z,85.86
2017-02-24T03:57:55.247Z,85.39
2017-02-24T03:58:55.238Z,86.24
2017-02-24T03:59:55.225Z,86.53
2017-02-24T04:00:55.215Z,86.53
2017-02-24T04:01:55.245Z,87.57
2017-02-24T04:02:55.209Z,87.29
2017-02-24T04:03:55.190Z,87.57
2017-02-24T04:04:55.173Z,86.53
2017-02-24T04:05:55.162Z,86.34
2017-02-24T04:06:55.152Z,86.72
2017-02-24T04:07:55.142Z,87.29
2017-02-24T04:08:55.129Z,87.05
2017-02-24T04:09:55.144Z,86.34
2017-02-24T04:10:55.109Z,86.34
2017-02-24T04:11:55.100Z,85.62
2017-02-24T04:12:55.089Z,85.86
2017-02-24T04:13:55.080Z,86.53
2017-02-24T04:14:55.072Z,85.3
2017-02-24T04:15:55.057Z,84.86
2017-02-24T04:16:55.087Z,85.49
2017-02-24T04:17:55.038Z,85.58
2017-02-24T04:18:55.033Z,85.11
2017-02-24T04:19:54.627Z,85.49
2017-02-24T04:20:55.036Z,85.39
2017-02-24T04:21:55.000Z,85.72
2017-02-24T04:22:54.983Z,86.05
2017-02-24T04:23:54.972Z,84.72
2017-02-24T04:24:54.961Z,84.53
2017-02-24T04:25:54.964Z,85.11
2017-02-24T04:26:54.941Z,85.68
2017-02-24T04:27:54.932Z,85.86
2017-02-24T04:28:54.919Z,85.86
2017-02-24T04:29:54.928Z,85.68
2017-02-24T04:30:54.912Z,85.3
2017-02-24T04:31:54.890Z,85.58
2017-02-24T04:32:54.879Z,85.58
2017-02-24T04:33:54.868Z,85.49
2017-02-24T04:34:54.858Z,85.3
2017-02-24T04:35:54.856Z,85.39
2017-02-24T04:36:54.840Z,85.68
2017-02-24T04:37:54.826Z,86.72
2017-02-24T04:38:54.817Z,86.24
2017-02-24T04:39:54.808Z,86.82
2017-02-24T04:40:54.806Z,87.01
2017-02-24T04:41:54.408Z,86.91
2017-02-24T04:42:54.774Z,84.91
2017-02-24T04:43:54.764Z,85.2
2017-02-24T04:44:54.759Z,85.68
2017-02-24T04:45:54.743Z,85.68
2017-02-24T04:46:54.745Z,85.11
2017-02-24T04:47:54.721Z,85.86
2017-02-24T04:48:54.718Z,85.11
2017-02-24T04:49:54.703Z,85.01
2017-02-24T04:50:54.691Z,85.68
2017-02-24T04:51:54.685Z,86.15
2017-02-24T04:52:54.667Z,86.53
2017-02-24T04:53:54.664Z,87.01
2017-02-24T04:54:54.646Z,87.29
2017-02-24T04:55:54.638Z,87.1
2017-02-24T04:56:54.630Z,86.05
2017-02-24T04:57:54.617Z,86.15
2017-02-24T04:58:54.605Z,87.1
2017-02-24T04:59:54.895Z,87.19
2017-02-24T05:00:54.589Z,87.95
2017-02-24T05:01:54.584Z,88.43
2017-02-24T05:02:54.564Z,89
2017-02-24T05:03:54.552Z,88.53
2017-02-24T05:04:54.902Z,89.47
2017-02-24T05:05:54.531Z,89
2017-02-24T05:06:54.520Z,88.1
2017-02-24T05:07:54.510Z,88.24
2017-02-24T05:08:54.512Z,88.48
2017-02-24T05:09:54.741Z,89.33
2017-02-24T05:10:54.100Z,90
2017-02-24T05:11:54.471Z,90.47
2017-02-24T05:12:54.458Z,90.57
2017-02-24T05:13:54.446Z,90.09
2017-02-24T05:14:54.686Z,90.19
2017-02-24T05:15:54.427Z,90.28
2017-02-24T05:16:54.412Z,89.9
2017-02-24T05:17:54.401Z,90.85
2017-02-24T05:18:54.390Z,90.24
2017-02-24T05:19:54.696Z,89.95
2017-02-24T05:20:54.368Z,88.91
2017-02-24T05:21:54.362Z,89.76
2017-02-24T05:22:54.347Z,89.2
2017-02-24T05:23:54.335Z,89.1
2017-02-24T05:24:54.576Z,88.91
2017-02-24T05:25:54.325Z,88.81
2017-02-24T05:26:54.308Z,88.91
2017-02-24T05:27:54.289Z,88.91
2017-02-24T05:28:53.891Z,88.81
2017-02-24T05:29:54.518Z,88.72
2017-02-24T05:30:53.867Z,88.62
2017-02-24T05:31:54.244Z,88.72
2017-02-24T05:32:54.249Z,89.29
2017-02-24T05:33:54.220Z,89.86
2017-02-24T05:34:54.459Z,90.24
2017-02-24T05:35:54.198Z,89.95
2017-02-24T05:36:54.186Z,90.43
2017-02-24T05:37:54.185Z,90.14
2017-02-24T05:38:54.167Z,89.86
2017-02-24T05:39:54.452Z,89.86
2017-02-24T05:40:54.141Z,90.14
2017-02-24T05:41:54.129Z,90.19
2017-02-24T05:42:54.117Z,90.38
2017-02-24T05:43:54.104Z,90.76
2017-02-24T05:44:54.097Z,91.42
2017-02-24T05:45:54.082Z,91.42
2017-02-24T05:46:53.688Z,92.18
2017-02-24T05:47:54.059Z,92.66
2017-02-24T05:48:54.055Z,93.61
2017-02-24T05:49:54.034Z,94.18
2017-02-24T05:50:54.032Z,94.51
2017-02-24T05:51:54.020Z,94.89
2017-02-24T05:52:54.003Z,95.45
2017-02-24T05:53:53.988Z,95.55
2017-02-24T05:54:53.976Z,95.93
2017-02-24T05:55:53.966Z,95.84
2017-02-24T05:56:53.964Z,96.03
2017-02-24T05:57:53.952Z,96.88
2017-02-24T05:58:53.931Z,96.69
2017-02-24T05:59:53.914Z,96.88
2017-02-24T06:00:53.901Z,96.78
2017-02-24T06:01:53.891Z,97.07
2017-02-24T06:02:53.886Z,96.83
2017-02-24T06:03:53.866Z,97.59
2017-02-24T06:04:53.852Z,97.78
2017-02-24T06:05:53.851Z,97.87
2017-02-24T06:06:53.841Z,98.54
2017-02-24T06:07:53.816Z,98.54
2017-02-24T06:08:53.803Z,98.25
2017-02-24T06:09:53.802Z,98.63
2017-02-24T06:10:53.791Z,98.54
2017-02-24T06:11:53.779Z,98.82
2017-02-24T06:12:53.753Z,98.91
2017-02-24T06:13:53.751Z,99.58
2017-02-24T06:14:53.736Z,99.67
2017-02-24T06:15:53.719Z,99.67
2017-02-24T06:16:53.702Z,99.29
2017-02-24T06:17:53.690Z,99.39
2017-02-24T06:18:53.675Z,99.99
2017-02-24T06:19:53.678Z,99.96
2017-02-24T06:20:53.664Z,99.99
2017-02-24T06:21:53.638Z,99.99
2017-02-24T06:22:53.638Z,99.99
2017-02-24T06:23:53.615Z,99.99
2017-02-24T06:24:53.599Z,99.99
2017-02-24T06:25:53.586Z,99.86
2017-02-24T06:26:53.574Z,99.99
2017-02-24T06:27:53.563Z,99.99
2017-02-24T06:28:53.551Z,99.99
2017-02-24T06:29:53.539Z,99.86
2017-02-24T06:30:53.774Z,99.99
2017-02-24T06:31:53.511Z,99.48
2017-02-24T06:32:53.497Z,99.77
2017-02-24T06:33:53.482Z,99.2
2017-02-24T06:34:53.471Z,99.39
2017-02-24T06:35:53.823Z,99.48
2017-02-24T06:36:53.449Z,99.67
2017-02-24T06:37:53.437Z,99.48
2017-02-24T06:38:53.419Z,99.58
2017-02-24T06:39:53.406Z,99.29
2017-02-24T06:40:53.703Z,99.39
2017-02-24T06:41:53.384Z,99.77
2017-02-24T06:42:53.371Z,99.99
2017-02-24T06:43:53.370Z,99.67
2017-02-24T06:44:53.358Z,99.48
2017-02-24T06:45:53.582Z,99.48
2017-02-24T06:46:53.316Z,98.82
2017-02-24T06:47:53.305Z,99.29
2017-02-24T06:48:53.292Z,99.67
2017-02-24T06:49:53.279Z,99.58
2017-02-24T06:50:53.576Z,99.48
2017-02-24T06:51:53.254Z,99.48
2017-02-24T06:52:53.241Z,99.39
2017-02-24T06:53:53.228Z,98.82
2017-02-24T06:54:53.215Z,99.67
2017-02-24T06:55:53.453Z,99.67
2017-02-24T06:56:53.189Z,99.77
2017-02-24T06:57:53.177Z,99.67
2017-02-24T06:58:53.173Z,99.39
2017-02-24T06:59:53.152Z,99.67
2017-02-24T07:00:53.391Z,99.48
2017-02-24T07:01:53.128Z,99.48
2017-02-24T07:02:53.122Z,99.48
2017-02-24T07:03:53.102Z,99.72
2017-02-24T07:04:53.099Z,99.29
2017-02-24T07:05:53.076Z,99.39
2017-02-24T07:06:53.064Z,99.99
2017-02-24T07:07:53.050Z,99.99
2017-02-24T07:08:53.039Z,99.99
2017-02-24T07:09:53.025Z,99.99
2017-02-24T07:10:53.014Z,98.87
2017-02-24T07:11:53.000Z,98.87
2017-02-24T07:12:52.992Z,99.06
2017-02-24T07:13:52.977Z,99.15
2017-02-24T07:14:52.963Z,98.49
2017-02-24T07:15:52.956Z,98.3
2017-02-24T07:16:52.940Z,98.58
2017-02-24T07:17:52.559Z,98.77
2017-02-24T07:18:52.914Z,99.72
2017-02-24T07:19:52.905Z,98.96
2017-02-24T07:20:52.888Z,98.68
2017-02-24T07:21:52.877Z,98.58
2017-02-24T07:22:52.864Z,99.06
2017-02-24T07:23:52.463Z,99.15
2017-02-24T07:24:52.839Z,98.58
2017-02-24T07:25:52.824Z,99.25
2017-02-24T07:26:52.815Z,98.96
2017-02-24T07:27:52.800Z,98.58
2017-02-24T07:28:52.793Z,98.3
2017-02-24T07:29:52.781Z,97.64
2017-02-24T07:30:52.763Z,97.83
2017-02-24T07:31:52.749Z,97.16
2017-02-24T07:32:52.745Z,97.45
2017-02-24T07:33:52.725Z,97.45
2017-02-24T07:34:52.712Z,97.54
2017-02-24T07:35:52.704Z,97.64
2017-02-24T07:36:52.703Z,97.73
2017-02-24T07:37:52.678Z,96.78
2017-02-24T07:38:52.674Z,97.26
2017-02-24T07:39:52.652Z,97.16
2017-02-24T07:40:52.640Z,97.64
2017-02-24T07:41:52.628Z,97.35
2017-02-24T07:42:52.614Z,97.35
2017-02-24T07:43:52.607Z,97.07
2017-02-24T07:44:52.590Z,97.54
2017-02-24T07:45:52.594Z,97.45
2017-02-24T07:46:52.565Z,97.73
2017-02-24T07:47:52.552Z,97.45
2017-02-24T07:48:52.545Z,97.54
2017-02-24T07:49:52.533Z,98.21
2017-02-24T07:50:52.518Z,98.3
2017-02-24T07:51:52.515Z,97.35
2017-02-24T07:52:52.491Z,97.35
2017-02-24T07:53:52.481Z,97.26
2017-02-24T07:54:52.474Z,97.54
2017-02-24T07:55:52.457Z,98.39
2017-02-24T07:56:52.453Z,98.68
2017-02-24T07:57:52.431Z,99.53
2017-02-24T07:58:52.420Z,99.53
2017-02-24T07:59:52.416Z,99.15
2017-02-24T08:00:52.413Z,99.63
2017-02-24T08:01:52.389Z,99.99
2017-02-24T08:02:52.375Z,99.99
2017-02-24T08:03:52.362Z,99.99
2017-02-24T08:04:52.357Z,99.99
2017-02-24T08:05:52.347Z,99.99
2017-02-24T08:06:52.371Z,99.99
2017-02-24T08:07:52.307Z,99.99
2017-02-24T08:08:52.295Z,99.99
2017-02-24T08:09:52.284Z,99.99
2017-02-24T08:10:52.274Z,99.99
2017-02-24T08:11:52.265Z,99.99
2017-02-24T08:12:52.254Z,99.99
2017-02-24T08:13:52.235Z,99.99
2017-02-24T08:14:52.222Z,99.99
2017-02-24T08:15:52.224Z,99.99
2017-02-24T08:16:52.204Z,99.99
2017-02-24T08:17:52.186Z,99.99
2017-02-24T08:18:52.172Z,99.99
2017-02-24T08:19:52.163Z,99.99
2017-02-24T08:20:52.154Z,99.99
2017-02-24T08:21:52.137Z,99.99
2017-02-24T08:22:52.124Z,99.99
2017-02-24T08:23:52.313Z,99.99
2017-02-24T08:24:52.102Z,99.99
2017-02-24T08:25:52.088Z,99.99
2017-02-24T08:26:52.076Z,99.99
2017-02-24T08:27:52.064Z,99.99
2017-02-24T08:28:52.051Z,99.99
2017-02-24T08:29:52.038Z,99.99
2017-02-24T08:30:52.027Z,99.99
2017-02-24T08:31:52.047Z,99.99
2017-02-24T08:32:52.011Z,99.99
2017-02-24T08:33:51.999Z,99.99
2017-02-24T08:34:51.991Z,99.99
2017-02-24T08:35:51.971Z,99.99
2017-02-24T08:36:51.957Z,99.99
2017-02-24T08:37:51.946Z,99.99
2017-02-24T08:38:51.935Z,99.99
2017-02-24T08:39:51.925Z,99.99
2017-02-24T08:40:51.913Z,99.99
2017-02-24T08:41:51.900Z,99.99
2017-02-24T08:42:51.888Z,99.99
2017-02-24T08:43:51.887Z,99.99
2017-02-24T08:44:51.880Z,99.99
2017-02-24T08:45:51.856Z,99.99
2017-02-24T08:46:52.094Z,99.99
2017-02-24T08:47:51.842Z,99.99
2017-02-24T08:48:51.821Z,99.99
2017-02-24T08:49:51.810Z,99.99
2017-02-24T08:50:51.799Z,99.99
2017-02-24T08:51:52.087Z,99.99
2017-02-24T08:52:51.779Z,99.99
2017-02-24T08:53:51.768Z,99.99
2017-02-24T08:54:51.753Z,99.99
2017-02-24T08:55:51.742Z,99.99
2017-02-24T08:56:51.981Z,99.99
2017-02-24T08:57:51.719Z,99.99
2017-02-24T08:58:51.715Z,99.99
2017-02-24T08:59:51.710Z,99.99
2017-02-24T09:00:51.685Z,99.99
2017-02-24T09:01:51.977Z,99.99
2017-02-24T09:02:51.662Z,99.99
2017-02-24T09:03:51.668Z,99.99
2017-02-24T09:04:51.641Z,99.99
2017-02-24T09:05:51.628Z,99.99
2017-02-24T09:06:51.888Z,99.99
2017-02-24T09:07:51.604Z,99.99
2017-02-24T09:08:51.598Z,99.99
2017-02-24T09:09:51.582Z,99.99
2017-02-24T09:10:51.569Z,99.99
2017-02-24T09:11:51.808Z,99.99
2017-02-24T09:12:51.549Z,99.99
2017-02-24T09:13:51.546Z,99.99
2017-02-24T09:14:51.524Z,99.99
2017-02-24T09:15:51.510Z,99.99
2017-02-24T09:16:51.758Z,99.99
2017-02-24T09:17:51.491Z,99.99
2017-02-24T09:18:51.476Z,99.99
2017-02-24T09:19:51.464Z,99.99
2017-02-24T09:20:51.462Z,99.99
2017-02-24T09:21:51.708Z,99.99
2017-02-24T09:22:51.429Z,99.99
2017-02-24T09:23:51.418Z,99.99
2017-02-24T09:24:51.019Z,99.99
2017-02-24T09:25:51.396Z,99.99
2017-02-24T09:26:51.682Z,99.99
2017-02-24T09:27:51.376Z,99.99
2017-02-24T09:28:51.361Z,99.99
2017-02-24T09:29:51.348Z,99.99
2017-02-24T09:30:51.338Z,99.99
2017-02-24T09:31:51.574Z,99.99
2017-02-24T09:32:51.313Z,99.99
2017-02-24T09:33:51.303Z,99.99
2017-02-24T09:34:51.291Z,99.99
2017-02-24T09:35:50.893Z,99.99
2017-02-24T09:36:51.517Z,99.99
2017-02-24T09:37:51.265Z,99.99
2017-02-24T09:38:51.245Z,99.99
2017-02-24T09:39:51.236Z,99.99
2017-02-24T09:40:51.223Z,99.99
2017-02-24T09:41:51.462Z,99.99
2017-02-24T09:42:51.208Z,99.99
2017-02-24T09:43:51.188Z,99.99
2017-02-24T09:44:51.179Z,99.99
2017-02-24T09:45:51.173Z,99.99
2017-02-24T09:46:51.507Z,99.99
2017-02-24T09:47:51.144Z,99.99
2017-02-24T09:48:51.134Z,99.99
2017-02-24T09:49:51.122Z,99.99
2017-02-24T09:50:51.119Z,99.99
2017-02-24T09:51:51.099Z,99.99
2017-02-24T09:52:51.088Z,99.99
2017-02-24T09:53:51.076Z,99.99
2017-02-24T09:54:51.079Z,99.99
2017-02-24T09:55:51.056Z,99.99
2017-02-24T09:56:51.044Z,99.99
2017-02-24T09:57:51.032Z,99.99
2017-02-24T09:58:51.021Z,99.99
2017-02-24T09:59:51.011Z,99.99
2017-02-24T10:00:51.012Z,99.99
2017-02-24T10:01:50.999Z,99.99
2017-02-24T10:02:50.989Z,99.99
2017-02-24T10:03:50.970Z,99.99
2017-02-24T10:04:50.952Z,99.99
2017-02-24T10:05:50.942Z,99.99
2017-02-24T10:06:50.932Z,99.99
2017-02-24T10:07:50.926Z,99.99
2017-02-24T10:08:50.908Z,99.99
2017-02-24T10:09:50.909Z,99.99
2017-02-24T10:10:50.507Z,99.99
2017-02-24T10:11:50.877Z,99.99
2017-02-24T10:12:50.870Z,99.99
2017-02-24T10:13:50.850Z,99.99
2017-02-24T10:14:50.843Z,99.82
2017-02-24T10:15:50.834Z,99.63
2017-02-24T10:16:50.830Z,99.99
2017-02-24T10:17:50.812Z,99.44
2017-02-24T10:18:50.799Z,99.99
2017-02-24T10:19:50.789Z,99.99
2017-02-24T10:20:50.775Z,99.99
2017-02-24T10:21:50.766Z,99.99
2017-02-24T10:22:50.777Z,99.99
2017-02-24T10:23:50.753Z,99.99
2017-02-24T10:24:50.749Z,99.99
2017-02-24T10:25:50.731Z,99.99
2017-02-24T10:26:50.715Z,99.99
2017-02-24T10:27:50.705Z,99.99
2017-02-24T10:28:50.699Z,99.99
2017-02-24T10:29:50.683Z,99.99
2017-02-24T10:30:50.675Z,99.49
2017-02-24T10:31:50.662Z,99.11
2017-02-24T10:32:50.657Z,98.64
2017-02-24T10:33:50.651Z,98.92
2017-02-24T10:34:50.646Z,98.83
2017-02-24T10:35:50.620Z,98.87
2017-02-24T10:36:50.611Z,96.69
2017-02-24T10:37:50.610Z,97.55
2017-02-24T10:38:50.592Z,96.97
2017-02-24T10:39:50.581Z,97.36
2017-02-24T10:40:50.577Z,98.11
2017-02-24T10:41:50.561Z,98.68
2017-02-24T10:42:50.548Z,98.68
2017-02-24T10:43:50.549Z,98.87
2017-02-24T10:44:50.531Z,99.26
2017-02-24T10:45:50.519Z,99.06
2017-02-24T10:46:50.506Z,98.11
2017-02-24T10:47:50.503Z,98.68
2017-02-24T10:48:50.485Z,97.64
2017-02-24T10:49:50.474Z,97.26
2017-02-24T10:50:50.464Z,97.83
2017-02-24T10:51:50.465Z,99.02
2017-02-24T10:52:50.443Z,99.87
2017-02-24T10:53:50.433Z,99.3
2017-02-24T10:54:50.423Z,99.02
2017-02-24T10:55:50.425Z,97.41
2017-02-24T10:56:50.416Z,95.51
2017-02-24T10:57:50.393Z,95.6
2017-02-24T10:58:50.399Z,96.64
2017-02-24T10:59:50.373Z,97.02
2017-02-24T11:00:50.364Z,95.17
2017-02-24T11:01:50.366Z,91.8
2017-02-24T11:02:50.357Z,91.99
2017-02-24T11:03:50.342Z,90.47
2017-02-24T11:04:50.325Z,91.04
2017-02-24T11:05:50.318Z,91.99
2017-02-24T11:06:50.307Z,94.27
2017-02-24T11:07:50.305Z,95.03
2017-02-24T11:08:50.287Z,95.65
2017-02-24T11:09:50.277Z,96.88
2017-02-24T11:10:50.271Z,97.74
2017-02-24T11:11:50.260Z,98.21
2017-02-24T11:12:50.250Z,98.21
2017-02-24T11:13:50.241Z,96.65
2017-02-24T11:14:50.243Z,96.36
2017-02-24T11:15:50.223Z,96.17
2017-02-24T11:16:50.215Z,97.31
2017-02-24T11:17:50.204Z,97.22
2017-02-24T11:18:50.201Z,97.41
2017-02-24T11:19:50.187Z,96.08
2017-02-24T11:20:50.193Z,95.41
2017-02-24T11:21:50.178Z,96.08
2017-02-24T11:22:50.161Z,93.79
2017-02-24T11:23:50.159Z,89.33
2017-02-24T11:24:50.142Z,91.23
2017-02-24T11:25:50.138Z,92.56
2017-02-24T11:26:50.127Z,94.37
2017-02-24T11:27:50.126Z,95.32
2017-02-24T11:28:50.118Z,95.03
2017-02-24T11:29:50.100Z,95.98
2017-02-24T11:30:50.088Z,95.41
2017-02-24T11:31:50.090Z,95.22
2017-02-24T11:32:50.071Z,95.41
2017-02-24T11:33:50.097Z,91.99
2017-02-24T11:34:50.052Z,85.72
2017-02-24T11:35:50.052Z,84.25
2017-02-24T11:36:50.034Z,87.48
2017-02-24T11:37:50.025Z,82.16
2017-02-24T11:38:50.017Z,83.11
2017-02-24T11:39:50.007Z,80.83
2017-02-24T11:40:50.003Z,81.93
2017-02-24T11:41:49.988Z,84.4
2017-02-24T11:42:49.981Z,81.84
2017-02-24T11:43:49.970Z,82.21
2017-02-24T11:44:49.960Z,80.88
2017-02-24T11:45:49.953Z,82.27
2017-02-24T11:46:49.939Z,83.5
2017-02-24T11:47:49.931Z,84.83
2017-02-24T11:48:49.922Z,84.07
2017-02-24T11:49:49.912Z,82.74
2017-02-24T11:50:49.911Z,82.74
2017-02-24T11:51:49.893Z,82.17
2017-02-24T11:52:49.882Z,83.59
2017-02-24T11:53:49.873Z,84.26
2017-02-24T11:54:49.864Z,84.59
2017-02-24T11:55:49.853Z,85.45
2017-02-24T11:56:49.845Z,84.45
2017-02-24T11:57:49.831Z,84.26
2017-02-24T11:58:49.835Z,84.74
2017-02-24T11:59:49.813Z,87.96
2017-02-24T12:00:49.801Z,85.49
2017-02-24T12:01:49.808Z,84.17
2017-02-24T12:02:49.806Z,84.74
2017-02-24T12:03:49.791Z,83.03
2017-02-24T12:04:49.761Z,82.36
2017-02-24T12:05:49.757Z,84.17
2017-02-24T12:06:49.741Z,83.73
2017-02-24T12:07:49.735Z,80.41
2017-02-24T12:08:49.722Z,80.46
2017-02-24T12:09:49.713Z,81.41
2017-02-24T12:10:49.705Z,81.32
2017-02-24T12:11:49.691Z,80.94
2017-02-24T12:12:49.934Z,80.94
2017-02-24T12:13:49.696Z,81.36
2017-02-24T12:14:49.663Z,78.61
2017-02-24T12:15:49.654Z,78.32
2017-02-24T12:16:49.656Z,79.23
2017-02-24T12:17:49.933Z,79.71
2017-02-24T12:18:49.625Z,80.94
2017-02-24T12:19:49.614Z,81.26
2017-02-24T12:20:49.619Z,84.01
2017-02-24T12:21:49.597Z,83.07
2017-02-24T12:22:49.841Z,78.23
2017-02-24T12:23:49.574Z,77.84
2017-02-24T12:24:49.582Z,76.14
2017-02-24T12:25:49.557Z,76.9
2017-02-24T12:26:49.547Z,76.42
2017-02-24T12:27:49.837Z,73.76
2017-02-24T12:28:49.529Z,74.24
2017-02-24T12:29:49.518Z,72.25
2017-02-24T12:30:49.511Z,73.76
2017-02-24T12:31:49.498Z,70.73
2017-02-24T12:32:49.754Z,71.11
2017-02-24T12:33:49.483Z,70.82
2017-02-24T12:34:49.480Z,71.2
2017-02-24T12:35:49.465Z,74.33
2017-02-24T12:36:49.453Z,75.57
2017-02-24T12:37:49.702Z,76.04
2017-02-24T12:38:49.438Z,73.76
2017-02-24T12:39:49.431Z,76.32
2017-02-24T12:40:49.415Z,73.67
2017-02-24T12:41:49.405Z,74.05
2017-02-24T12:42:49.698Z,74.62
2017-02-24T12:43:49.391Z,74.62
2017-02-24T12:44:49.374Z,72.81
2017-02-24T12:45:49.373Z,71.77
2017-02-24T12:46:49.358Z,73.19
2017-02-24T12:47:49.668Z,72.91
2017-02-24T12:48:49.341Z,76.71
2017-02-24T12:49:49.331Z,78.03
2017-02-24T12:50:49.320Z,77.66
2017-02-24T12:51:49.320Z,77.37
2017-02-24T12:52:49.550Z,78.51
2017-02-24T12:53:49.293Z,74.15
2017-02-24T12:54:49.282Z,72.91